sensor_id;sensor_type;location;lat;lon;timestamp;temperature;humidity
29577;DHT22;16509;53.862;10.672;2023-02-28T00:01:05;3.60;99.90
29577;DHT22;16509;53.862;10.672;2023-02-28T00:03:30;3.50;99.90
29577;DHT22;16509;53.862;10.672;2023-02-28T00:06:01;3.50;99.90
29577;DHT22;16509;53.862;10.672;2023-02-28T00:08:27;3.50;99.90
29577;DHT22;16509;53.862;10.672;2023-02-28T00:10:52;3.50;99.90
29577;DHT22;16509;53.862;10.672;2023-02-28T00:13:18;3.50;99.90
29577;DHT22;16509;53.862;10.672;2023-02-28T00:15:43;3.60;99.90
29577;DHT22;16509;53.862;10.672;2023-02-28T00:18:10;3.60;99.90
29577;DHT22;16509;53.862;10.672;2023-02-28T00:20:37;3.60;99.90
29577;DHT22;16509;53.862;10.672;2023-02-28T00:23:02;3.60;99.90
29577;DHT22;16509;53.862;10.672;2023-02-28T00:25:28;3.50;99.90
29577;DHT22;16509;53.862;10.672;2023-02-28T00:27:54;3.50;99.90
29577;DHT22;16509;53.862;10.672;2023-02-28T00:30:21;3.60;99.90
29577;DHT22;16509;53.862;10.672;2023-02-28T00:32:47;3.60;99.90
29577;DHT22;16509;53.862;10.672;2023-02-28T00:35:13;3.60;99.90
29577;DHT22;16509;53.862;10.672;2023-02-28T00:37:39;3.70;99.90
29577;DHT22;16509;53.862;10.672;2023-02-28T00:40:06;3.60;99.90
29577;DHT22;16509;53.862;10.672;2023-02-28T00:42:32;3.60;99.90
29577;DHT22;16509;53.862;10.672;2023-02-28T00:44:58;3.60;99.90
29577;DHT22;16509;53.862;10.672;2023-02-28T00:47:24;3.60;99.90
29577;DHT22;16509;53.862;10.672;2023-02-28T00:49:49;3.60;99.90
29577;DHT22;16509;53.862;10.672;2023-02-28T00:52:15;3.60;99.90
29577;DHT22;16509;53.862;10.672;2023-02-28T00:54:41;3.60;99.90
29577;DHT22;16509;53.862;10.672;2023-02-28T00:57:06;3.50;99.90
29577;DHT22;16509;53.862;10.672;2023-02-28T00:59:32;3.50;99.90
29577;DHT22;16509;53.862;10.672;2023-02-28T01:01:57;3.50;99.90
29577;DHT22;16509;53.862;10.672;2023-02-28T01:04:23;3.50;99.90
29577;DHT22;16509;53.862;10.672;2023-02-28T01:06:50;3.60;99.90
29577;DHT22;16509;53.862;10.672;2023-02-28T01:09:15;3.60;99.90
29577;DHT22;16509;53.862;10.672;2023-02-28T01:11:41;3.60;99.90
29577;DHT22;16509;53.862;10.672;2023-02-28T01:14:14;3.50;99.90
29577;DHT22;16509;53.862;10.672;2023-02-28T01:16:41;3.50;99.90
29577;DHT22;16509;53.862;10.672;2023-02-28T01:19:07;3.40;99.90
29577;DHT22;16509;53.862;10.672;2023-02-28T01:21:32;3.40;99.90
29577;DHT22;16509;53.862;10.672;2023-02-28T01:23:58;3.50;99.90
29577;DHT22;16509;53.862;10.672;2023-02-28T01:26:24;3.30;99.90
29577;DHT22;16509;53.862;10.672;2023-02-28T01:28:51;3.30;99.90
29577;DHT22;16509;53.862;10.672;2023-02-28T01:31:18;3.30;99.90
29577;DHT22;16509;53.862;10.672;2023-02-28T01:33:44;3.30;99.90
29577;DHT22;16509;53.862;10.672;2023-02-28T01:36:15;3.40;99.90
29577;DHT22;16509;53.862;10.672;2023-02-28T01:38:41;3.40;99.90
29577;DHT22;16509;53.862;10.672;2023-02-28T01:41:07;3.40;99.90
29577;DHT22;16509;53.862;10.672;2023-02-28T01:46:07;3.30;99.90
29577;DHT22;16509;53.862;10.672;2023-02-28T01:48:36;3.40;99.90
29577;DHT22;16509;53.862;10.672;2023-02-28T01:51:09;3.40;99.90
29577;DHT22;16509;53.862;10.672;2023-02-28T01:53:41;3.30;99.90
29577;DHT22;16509;53.862;10.672;2023-02-28T01:56:09;3.30;99.90
29577;DHT22;16509;53.862;10.672;2023-02-28T01:58:37;3.20;99.90
29577;DHT22;16509;53.862;10.672;2023-02-28T02:01:02;3.20;99.90
29577;DHT22;16509;53.862;10.672;2023-02-28T02:03:29;3.20;99.90
29577;DHT22;16509;53.862;10.672;2023-02-28T02:05:55;3.10;99.90
29577;DHT22;16509;53.862;10.672;2023-02-28T02:08:26;3.20;99.90
29577;DHT22;16509;53.862;10.672;2023-02-28T02:10:58;3.10;99.90
29577;DHT22;16509;53.862;10.672;2023-02-28T02:36:24;3.00;99.90
29577;DHT22;16509;53.862;10.672;2023-02-28T02:39:27;2.90;99.90
29577;DHT22;16509;53.862;10.672;2023-02-28T02:42:00;2.80;99.90
29577;DHT22;16509;53.862;10.672;2023-02-28T02:44:41;2.70;99.90
29577;DHT22;16509;53.862;10.672;2023-02-28T02:47:13;2.70;99.90
29577;DHT22;16509;53.862;10.672;2023-02-28T02:49:44;2.60;99.90
29577;DHT22;16509;53.862;10.672;2023-02-28T02:52:13;2.50;99.90
29577;DHT22;16509;53.862;10.672;2023-02-28T02:54:45;2.40;99.90
29577;DHT22;16509;53.862;10.672;2023-02-28T02:57:34;2.40;99.90
29577;DHT22;16509;53.862;10.672;2023-02-28T03:00:03;2.40;99.90
29577;DHT22;16509;53.862;10.672;2023-02-28T03:02:32;2.30;99.90
29577;DHT22;16509;53.862;10.672;2023-02-28T03:05:02;2.30;99.90
29577;DHT22;16509;53.862;10.672;2023-02-28T03:07:29;2.20;99.90
29577;DHT22;16509;53.862;10.672;2023-02-28T03:09:56;2.10;99.90
29577;DHT22;16509;53.862;10.672;2023-02-28T03:20:32;2.10;99.90
29577;DHT22;16509;53.862;10.672;2023-02-28T03:25:56;2.00;99.90
29577;DHT22;16509;53.862;10.672;2023-02-28T03:28:32;2.00;99.90
29577;DHT22;16509;53.862;10.672;2023-02-28T03:31:59;1.90;99.90
29577;DHT22;16509;53.862;10.672;2023-02-28T03:36:39;1.80;99.90
29577;DHT22;16509;53.862;10.672;2023-02-28T03:39:14;1.70;99.90
29577;DHT22;16509;53.862;10.672;2023-02-28T03:41:51;1.60;99.90
29577;DHT22;16509;53.862;10.672;2023-02-28T03:44:25;1.60;99.90
29577;DHT22;16509;53.862;10.672;2023-02-28T03:47:00;2.40;99.90
29577;DHT22;16509;53.862;10.672;2023-02-28T03:49:35;1.50;99.90
29577;DHT22;16509;53.862;10.672;2023-02-28T03:52:06;1.50;99.90
29577;DHT22;16509;53.862;10.672;2023-02-28T03:54:37;1.40;99.90
29577;DHT22;16509;53.862;10.672;2023-02-28T03:57:18;2.20;99.90
29577;DHT22;16509;53.862;10.672;2023-02-28T03:59:52;1.30;99.90
29577;DHT22;16509;53.862;10.672;2023-02-28T04:02:19;1.20;99.90
29577;DHT22;16509;53.862;10.672;2023-02-28T04:04:45;1.30;99.90
29577;DHT22;16509;53.862;10.672;2023-02-28T04:07:14;1.20;99.90
29577;DHT22;16509;53.862;10.672;2023-02-28T04:09:40;1.20;99.90
29577;DHT22;16509;53.862;10.672;2023-02-28T04:12:06;1.10;99.90
29577;DHT22;16509;53.862;10.672;2023-02-28T04:14:32;1.10;99.90
29577;DHT22;16509;53.862;10.672;2023-02-28T04:16:58;1.00;99.90
29577;DHT22;16509;53.862;10.672;2023-02-28T04:19:23;1.00;99.90
29577;DHT22;16509;53.862;10.672;2023-02-28T04:21:51;1.00;99.90
29577;DHT22;16509;53.862;10.672;2023-02-28T04:24:27;0.90;99.90
29577;DHT22;16509;53.862;10.672;2023-02-28T04:26:55;0.90;99.90
29577;DHT22;16509;53.862;10.672;2023-02-28T04:29:24;0.80;99.90
29577;DHT22;16509;53.862;10.672;2023-02-28T04:31:50;0.80;99.90
29577;DHT22;16509;53.862;10.672;2023-02-28T04:34:19;0.80;99.90
29577;DHT22;16509;53.862;10.672;2023-02-28T04:36:45;0.70;99.90
29577;DHT22;16509;53.862;10.672;2023-02-28T04:39:11;0.60;99.90
29577;DHT22;16509;53.862;10.672;2023-02-28T04:41:37;0.60;99.90
29577;DHT22;16509;53.862;10.672;2023-02-28T04:44:03;0.50;99.90
29577;DHT22;16509;53.862;10.672;2023-02-28T04:46:29;0.50;99.90
29577;DHT22;16509;53.862;10.672;2023-02-28T04:48:55;0.50;99.90
29577;DHT22;16509;53.862;10.672;2023-02-28T04:51:22;0.50;99.90
29577;DHT22;16509;53.862;10.672;2023-02-28T04:53:48;0.50;99.90
29577;DHT22;16509;53.862;10.672;2023-02-28T04:56:15;0.50;99.90
29577;DHT22;16509;53.862;10.672;2023-02-28T04:58:41;0.50;99.90
29577;DHT22;16509;53.862;10.672;2023-02-28T05:01:31;0.40;99.90
29577;DHT22;16509;53.862;10.672;2023-02-28T05:03:58;0.40;99.90
29577;DHT22;16509;53.862;10.672;2023-02-28T05:06:26;0.30;99.90
29577;DHT22;16509;53.862;10.672;2023-02-28T05:08:52;0.30;99.90
29577;DHT22;16509;53.862;10.672;2023-02-28T05:11:21;0.20;99.90
29577;DHT22;16509;53.862;10.672;2023-02-28T05:13:47;0.20;99.90
29577;DHT22;16509;53.862;10.672;2023-02-28T05:16:14;0.20;99.90
29577;DHT22;16509;53.862;10.672;2023-02-28T05:18:40;0.20;99.90
29577;DHT22;16509;53.862;10.672;2023-02-28T05:21:06;0.20;99.90
29577;DHT22;16509;53.862;10.672;2023-02-28T05:23:44;0.20;99.90
29577;DHT22;16509;53.862;10.672;2023-02-28T05:26:10;0.20;99.90
29577;DHT22;16509;53.862;10.672;2023-02-28T05:28:35;0.10;99.90
29577;DHT22;16509;53.862;10.672;2023-02-28T05:31:01;0.10;99.90
29577;DHT22;16509;53.862;10.672;2023-02-28T05:33:26;0.10;99.90
29577;DHT22;16509;53.862;10.672;2023-02-28T05:35:52;0.10;99.90
29577;DHT22;16509;53.862;10.672;2023-02-28T05:38:17;0.10;99.90
29577;DHT22;16509;53.862;10.672;2023-02-28T05:40:43;0.10;99.90
29577;DHT22;16509;53.862;10.672;2023-02-28T05:43:10;0.00;99.90
29577;DHT22;16509;53.862;10.672;2023-02-28T05:45:37;0.00;99.90
29577;DHT22;16509;53.862;10.672;2023-02-28T05:48:02;-0.10;99.90
29577;DHT22;16509;53.862;10.672;2023-02-28T05:50:28;-0.10;99.90
29577;DHT22;16509;53.862;10.672;2023-02-28T05:52:53;-0.20;99.90
29577;DHT22;16509;53.862;10.672;2023-02-28T05:55:19;-0.20;99.90
29577;DHT22;16509;53.862;10.672;2023-02-28T05:57:44;-0.20;99.90
29577;DHT22;16509;53.862;10.672;2023-02-28T06:00:11;-0.20;99.90
29577;DHT22;16509;53.862;10.672;2023-02-28T06:02:39;-0.20;99.90
29577;DHT22;16509;53.862;10.672;2023-02-28T06:05:07;-0.20;99.90
29577;DHT22;16509;53.862;10.672;2023-02-28T06:07:35;-0.20;99.90
29577;DHT22;16509;53.862;10.672;2023-02-28T06:10:00;-0.20;99.90
29577;DHT22;16509;53.862;10.672;2023-02-28T06:12:26;-0.20;99.90
29577;DHT22;16509;53.862;10.672;2023-02-28T06:14:51;-0.20;99.90
29577;DHT22;16509;53.862;10.672;2023-02-28T06:17:17;-0.10;99.90
29577;DHT22;16509;53.862;10.672;2023-02-28T06:19:43;-0.10;99.90
29577;DHT22;16509;53.862;10.672;2023-02-28T06:22:08;-0.10;99.90
29577;DHT22;16509;53.862;10.672;2023-02-28T06:24:34;0.00;99.90
29577;DHT22;16509;53.862;10.672;2023-02-28T06:27:00;-0.10;99.90
29577;DHT22;16509;53.862;10.672;2023-02-28T06:29:32;-0.10;99.90
29577;DHT22;16509;53.862;10.672;2023-02-28T06:31:57;-0.10;99.90
29577;DHT22;16509;53.862;10.672;2023-02-28T06:34:23;-0.20;99.90
29577;DHT22;16509;53.862;10.672;2023-02-28T06:36:50;1.80;99.90
29577;DHT22;16509;53.862;10.672;2023-02-28T06:39:16;-0.20;99.90
29577;DHT22;16509;53.862;10.672;2023-02-28T06:41:42;-0.20;99.90
29577;DHT22;16509;53.862;10.672;2023-02-28T06:44:21;-0.90;99.90
29577;DHT22;16509;53.862;10.672;2023-02-28T06:46:46;0.00;99.90
29577;DHT22;16509;53.862;10.672;2023-02-28T06:49:12;2.80;99.90
29577;DHT22;16509;53.862;10.672;2023-02-28T06:51:42;-0.30;99.90
29577;DHT22;16509;53.862;10.672;2023-02-28T06:54:10;-0.20;99.90
29577;DHT22;16509;53.862;10.672;2023-02-28T06:56:37;1.30;99.90
29577;DHT22;16509;53.862;10.672;2023-02-28T06:59:02;-0.20;99.90
29577;DHT22;16509;53.862;10.672;2023-02-28T07:01:29;-0.20;99.90
29577;DHT22;16509;53.862;10.672;2023-02-28T07:03:54;-0.60;99.90
29577;DHT22;16509;53.862;10.672;2023-02-28T07:06:21;-0.20;99.90
29577;DHT22;16509;53.862;10.672;2023-02-28T07:08:51;-0.20;99.90
29577;DHT22;16509;53.862;10.672;2023-02-28T07:11:24;-0.20;99.90
29577;DHT22;16509;53.862;10.672;2023-02-28T07:13:52;0.00;99.90
29577;DHT22;16509;53.862;10.672;2023-02-28T07:16:18;-0.10;99.90
29577;DHT22;16509;53.862;10.672;2023-02-28T07:18:43;0.00;99.90
29577;DHT22;16509;53.862;10.672;2023-02-28T07:21:10;0.00;99.90
29577;DHT22;16509;53.862;10.672;2023-02-28T07:23:36;0.10;99.90
29577;DHT22;16509;53.862;10.672;2023-02-28T07:26:06;0.10;99.90
29577;DHT22;16509;53.862;10.672;2023-02-28T07:28:32;0.10;99.90
29577;DHT22;16509;53.862;10.672;2023-02-28T07:31:04;0.10;99.90
29577;DHT22;16509;53.862;10.672;2023-02-28T07:33:30;0.20;99.90
29577;DHT22;16509;53.862;10.672;2023-02-28T07:36:11;0.20;99.90
29577;DHT22;16509;53.862;10.672;2023-02-28T07:38:41;0.20;99.90
29577;DHT22;16509;53.862;10.672;2023-02-28T07:41:08;0.30;99.90
29577;DHT22;16509;53.862;10.672;2023-02-28T07:43:35;0.30;99.90
29577;DHT22;16509;53.862;10.672;2023-02-28T07:46:06;0.30;99.90
29577;DHT22;16509;53.862;10.672;2023-02-28T07:48:31;0.30;99.90
29577;DHT22;16509;53.862;10.672;2023-02-28T07:50:58;1.70;99.90
29577;DHT22;16509;53.862;10.672;2023-02-28T07:53:25;0.40;99.90
29577;DHT22;16509;53.862;10.672;2023-02-28T07:55:51;0.50;99.90
29577;DHT22;16509;53.862;10.672;2023-02-28T07:58:19;0.50;99.90
29577;DHT22;16509;53.862;10.672;2023-02-28T08:00:45;0.50;99.90
29577;DHT22;16509;53.862;10.672;2023-02-28T08:03:13;0.60;99.90
29577;DHT22;16509;53.862;10.672;2023-02-28T08:05:39;0.60;99.90
29577;DHT22;16509;53.862;10.672;2023-02-28T08:08:06;0.70;99.90
29577;DHT22;16509;53.862;10.672;2023-02-28T08:10:32;0.80;99.90
29577;DHT22;16509;53.862;10.672;2023-02-28T08:12:57;0.80;99.90
29577;DHT22;16509;53.862;10.672;2023-02-28T08:15:23;0.90;99.90
29577;DHT22;16509;53.862;10.672;2023-02-28T08:17:48;1.00;99.90
29577;DHT22;16509;53.862;10.672;2023-02-28T08:20:14;1.10;99.90
29577;DHT22;16509;53.862;10.672;2023-02-28T08:22:39;1.10;99.90
29577;DHT22;16509;53.862;10.672;2023-02-28T08:25:06;1.20;99.90
29577;DHT22;16509;53.862;10.672;2023-02-28T08:27:32;1.30;99.90
29577;DHT22;16509;53.862;10.672;2023-02-28T08:29:58;1.40;99.90
29577;DHT22;16509;53.862;10.672;2023-02-28T08:32:23;1.60;99.90
29577;DHT22;16509;53.862;10.672;2023-02-28T08:34:49;1.60;99.90
29577;DHT22;16509;53.862;10.672;2023-02-28T08:37:15;1.80;99.90
29577;DHT22;16509;53.862;10.672;2023-02-28T08:39:40;1.90;99.90
29577;DHT22;16509;53.862;10.672;2023-02-28T08:42:06;2.00;99.90
29577;DHT22;16509;53.862;10.672;2023-02-28T08:44:32;2.20;99.90
29577;DHT22;16509;53.862;10.672;2023-02-28T08:46:57;2.20;99.90
29577;DHT22;16509;53.862;10.672;2023-02-28T08:49:23;2.40;99.90
29577;DHT22;16509;53.862;10.672;2023-02-28T08:51:49;2.50;99.90
29577;DHT22;16509;53.862;10.672;2023-02-28T08:54:14;2.70;99.90
29577;DHT22;16509;53.862;10.672;2023-02-28T08:56:45;2.80;99.90
29577;DHT22;16509;53.862;10.672;2023-02-28T08:59:12;3.00;99.90
29577;DHT22;16509;53.862;10.672;2023-02-28T09:01:38;3.10;99.90
29577;DHT22;16509;53.862;10.672;2023-02-28T09:04:04;3.30;99.90
29577;DHT22;16509;53.862;10.672;2023-02-28T09:06:32;3.60;99.90
29577;DHT22;16509;53.862;10.672;2023-02-28T09:08:58;3.60;99.90
29577;DHT22;16509;53.862;10.672;2023-02-28T09:11:25;3.80;99.90
29577;DHT22;16509;53.862;10.672;2023-02-28T09:13:50;4.00;99.90
29577;DHT22;16509;53.862;10.672;2023-02-28T09:16:16;4.10;99.90
29577;DHT22;16509;53.862;10.672;2023-02-28T09:18:43;4.20;99.90
29577;DHT22;16509;53.862;10.672;2023-02-28T09:21:17;4.30;99.90
29577;DHT22;16509;53.862;10.672;2023-02-28T09:23:44;4.40;99.90
29577;DHT22;16509;53.862;10.672;2023-02-28T09:26:18;4.40;99.90
29577;DHT22;16509;53.862;10.672;2023-02-28T09:28:44;4.50;99.90
29577;DHT22;16509;53.862;10.672;2023-02-28T09:31:20;4.40;99.90
29577;DHT22;16509;53.862;10.672;2023-02-28T09:33:51;4.50;99.90
29577;DHT22;16509;53.862;10.672;2023-02-28T09:36:17;5.00;99.90
29577;DHT22;16509;53.862;10.672;2023-02-28T09:38:43;4.40;99.90
29577;DHT22;16509;53.862;10.672;2023-02-28T09:41:17;5.70;99.90
29577;DHT22;16509;53.862;10.672;2023-02-28T09:43:47;4.60;99.90
29577;DHT22;16509;53.862;10.672;2023-02-28T09:46:29;4.70;99.90
29577;DHT22;16509;53.862;10.672;2023-02-28T09:48:56;4.80;99.90
29577;DHT22;16509;53.862;10.672;2023-02-28T09:53:49;4.90;99.90
29577;DHT22;16509;53.862;10.672;2023-02-28T09:56:31;4.90;99.90
29577;DHT22;16509;53.862;10.672;2023-02-28T10:01:48;4.90;99.90
29577;DHT22;16509;53.862;10.672;2023-02-28T10:04:38;5.00;99.90
29577;DHT22;16509;53.862;10.672;2023-02-28T10:09:46;5.30;99.90
29577;DHT22;16509;53.862;10.672;2023-02-28T10:12:16;5.50;99.90
29577;DHT22;16509;53.862;10.672;2023-02-28T10:14:45;5.70;99.90
29577;DHT22;16509;53.862;10.672;2023-02-28T10:17:21;5.90;99.90
29577;DHT22;16509;53.862;10.672;2023-02-28T10:20:23;6.00;99.90
29577;DHT22;16509;53.862;10.672;2023-02-28T10:23:16;6.20;99.90
29577;DHT22;16509;53.862;10.672;2023-02-28T10:25:50;6.30;99.90
29577;DHT22;16509;53.862;10.672;2023-02-28T10:28:18;6.60;99.90
29577;DHT22;16509;53.862;10.672;2023-02-28T10:30:50;6.50;99.90
29577;DHT22;16509;53.862;10.672;2023-02-28T10:35:54;7.10;99.90
29577;DHT22;16509;53.862;10.672;2023-02-28T10:38:27;7.30;99.90
29577;DHT22;16509;53.862;10.672;2023-02-28T10:43:29;8.00;99.90
29577;DHT22;16509;53.862;10.672;2023-02-28T10:48:29;8.40;99.90
29577;DHT22;16509;53.862;10.672;2023-02-28T10:50:55;8.90;99.90
29577;DHT22;16509;53.862;10.672;2023-02-28T11:00:58;9.70;99.90
29577;DHT22;16509;53.862;10.672;2023-02-28T11:03:29;10.20;99.90
29577;DHT22;16509;53.862;10.672;2023-02-28T11:05:56;10.50;99.90
29577;DHT22;16509;53.862;10.672;2023-02-28T11:08:22;10.60;99.90
29577;DHT22;16509;53.862;10.672;2023-02-28T11:10:54;10.20;99.90
29577;DHT22;16509;53.862;10.672;2023-02-28T11:13:33;10.20;99.90
29577;DHT22;16509;53.862;10.672;2023-02-28T11:16:02;10.40;99.90
29577;DHT22;16509;53.862;10.672;2023-02-28T11:18:49;10.20;99.90
29577;DHT22;16509;53.862;10.672;2023-02-28T11:21:18;10.60;99.90
29577;DHT22;16509;53.862;10.672;2023-02-28T11:23:45;10.60;99.90
29577;DHT22;16509;53.862;10.672;2023-02-28T11:26:11;10.20;99.90
29577;DHT22;16509;53.862;10.672;2023-02-28T11:28:39;12.20;99.90
29577;DHT22;16509;53.862;10.672;2023-02-28T11:33:54;11.40;99.90
29577;DHT22;16509;53.862;10.672;2023-02-28T11:38:47;11.40;99.90
29577;DHT22;16509;53.862;10.672;2023-02-28T11:44:16;11.60;99.90
29577;DHT22;16509;53.862;10.672;2023-02-28T11:46:49;11.60;99.90
29577;DHT22;16509;53.862;10.672;2023-02-28T11:49:32;11.70;99.90
29577;DHT22;16509;53.862;10.672;2023-02-28T11:52:37;11.90;99.90
29577;DHT22;16509;53.862;10.672;2023-02-28T12:06:38;11.40;99.90
29577;DHT22;16509;53.862;10.672;2023-02-28T12:09:20;11.60;99.90
29577;DHT22;16509;53.862;10.672;2023-02-28T12:15:32;12.40;99.90
29577;DHT22;16509;53.862;10.672;2023-02-28T12:18:03;12.10;99.90
29577;DHT22;16509;53.862;10.672;2023-02-28T12:23:48;11.60;99.90
29577;DHT22;16509;53.862;10.672;2023-02-28T12:26:31;11.70;99.90
29577;DHT22;16509;53.862;10.672;2023-02-28T12:29:21;11.20;99.90
29577;DHT22;16509;53.862;10.672;2023-02-28T12:31:52;11.10;99.90
29577;DHT22;16509;53.862;10.672;2023-02-28T12:35:04;10.30;99.90
29577;DHT22;16509;53.862;10.672;2023-02-28T12:37:17;10.10;99.90
29577;DHT22;16509;53.862;10.672;2023-02-28T12:39:48;9.70;99.90
29577;DHT22;16509;53.862;10.672;2023-02-28T12:42:24;9.60;99.90
29577;DHT22;16509;53.862;10.672;2023-02-28T12:44:58;9.50;99.90
29577;DHT22;16509;53.862;10.672;2023-02-28T12:47:24;9.30;99.90
29577;DHT22;16509;53.862;10.672;2023-02-28T12:49:56;9.20;99.90
29577;DHT22;16509;53.862;10.672;2023-02-28T12:52:34;9.10;99.90
29577;DHT22;16509;53.862;10.672;2023-02-28T12:55:17;8.90;99.90
29577;DHT22;16509;53.862;10.672;2023-02-28T12:57:57;8.80;99.90
29577;DHT22;16509;53.862;10.672;2023-02-28T13:00:29;8.70;99.90
29577;DHT22;16509;53.862;10.672;2023-02-28T13:03:01;8.60;99.90
29577;DHT22;16509;53.862;10.672;2023-02-28T13:05:50;8.40;99.90
29577;DHT22;16509;53.862;10.672;2023-02-28T13:08:53;8.20;99.90
29577;DHT22;16509;53.862;10.672;2023-02-28T13:14:22;8.10;99.90
29577;DHT22;16509;53.862;10.672;2023-02-28T13:19:26;7.90;99.90
29577;DHT22;16509;53.862;10.672;2023-02-28T13:21:52;7.80;99.90
29577;DHT22;16509;53.862;10.672;2023-02-28T13:24:38;7.70;99.90
29577;DHT22;16509;53.862;10.672;2023-02-28T13:29:41;7.60;99.90
29577;DHT22;16509;53.862;10.672;2023-02-28T13:40:41;7.60;99.90
29577;DHT22;16509;53.862;10.672;2023-02-28T13:42:49;7.50;99.90
29577;DHT22;16509;53.862;10.672;2023-02-28T13:45:24;7.40;99.90
29577;DHT22;16509;53.862;10.672;2023-02-28T13:50:30;7.40;99.90
29577;DHT22;16509;53.862;10.672;2023-02-28T14:01:03;7.30;99.90
29577;DHT22;16509;53.862;10.672;2023-02-28T14:06:29;7.20;99.90
29577;DHT22;16509;53.862;10.672;2023-02-28T14:15:03;7.10;99.90
29577;DHT22;16509;53.862;10.672;2023-02-28T14:17:28;7.00;99.90
29577;DHT22;16509;53.862;10.672;2023-02-28T14:19:55;7.10;99.90
29577;DHT22;16509;53.862;10.672;2023-02-28T14:25:17;8.60;99.90
29577;DHT22;16509;53.862;10.672;2023-02-28T14:28:21;7.20;99.90
29577;DHT22;16509;53.862;10.672;2023-02-28T14:36:30;7.10;99.90
29577;DHT22;16509;53.862;10.672;2023-02-28T14:39:04;7.20;99.90
29577;DHT22;16509;53.862;10.672;2023-02-28T14:44:01;7.30;99.90
29577;DHT22;16509;53.862;10.672;2023-02-28T14:46:37;7.40;99.90
29577;DHT22;16509;53.862;10.672;2023-02-28T14:49:05;7.20;99.90
29577;DHT22;16509;53.862;10.672;2023-02-28T14:51:33;7.20;99.90
29577;DHT22;16509;53.862;10.672;2023-02-28T14:54:00;7.20;99.90
29577;DHT22;16509;53.862;10.672;2023-02-28T14:56:36;7.70;99.90
29577;DHT22;16509;53.862;10.672;2023-02-28T14:59:03;7.10;99.90
29577;DHT22;16509;53.862;10.672;2023-02-28T15:01:29;7.00;99.90
29577;DHT22;16509;53.862;10.672;2023-02-28T15:04:06;7.10;99.90
29577;DHT22;16509;53.862;10.672;2023-02-28T15:06:40;7.00;99.90
29577;DHT22;16509;53.862;10.672;2023-02-28T15:09:32;7.00;99.90
29577;DHT22;16509;53.862;10.672;2023-02-28T15:11:58;6.90;99.90
29577;DHT22;16509;53.862;10.672;2023-02-28T15:14:25;7.40;99.90
29577;DHT22;16509;53.862;10.672;2023-02-28T15:17:05;6.90;99.90
29577;DHT22;16509;53.862;10.672;2023-02-28T15:19:39;6.70;99.90
29577;DHT22;16509;53.862;10.672;2023-02-28T15:22:23;6.60;99.90
29577;DHT22;16509;53.862;10.672;2023-02-28T15:24:54;6.60;99.90
29577;DHT22;16509;53.862;10.672;2023-02-28T15:27:27;6.60;99.90
29577;DHT22;16509;53.862;10.672;2023-02-28T15:29:57;6.70;99.90
29577;DHT22;16509;53.862;10.672;2023-02-28T15:32:32;6.70;99.90
29577;DHT22;16509;53.862;10.672;2023-02-28T15:34:59;6.70;99.90
29577;DHT22;16509;53.862;10.672;2023-02-28T15:40:53;6.50;99.90
29577;DHT22;16509;53.862;10.672;2023-02-28T15:43:33;6.50;99.90
29577;DHT22;16509;53.862;10.672;2023-02-28T15:46:04;6.50;99.90
29577;DHT22;16509;53.862;10.672;2023-02-28T15:48:34;6.50;99.90
29577;DHT22;16509;53.862;10.672;2023-02-28T15:51:24;6.40;99.90
29577;DHT22;16509;53.862;10.672;2023-02-28T15:54:07;6.40;99.90
29577;DHT22;16509;53.862;10.672;2023-02-28T15:56:39;6.30;99.90
29577;DHT22;16509;53.862;10.672;2023-02-28T15:59:06;6.20;99.90
29577;DHT22;16509;53.862;10.672;2023-02-28T16:01:35;6.10;99.90
29577;DHT22;16509;53.862;10.672;2023-02-28T16:04:04;6.20;99.90
29577;DHT22;16509;53.862;10.672;2023-02-28T16:09:05;6.30;99.90
29577;DHT22;16509;53.862;10.672;2023-02-28T16:11:34;6.20;99.90
29577;DHT22;16509;53.862;10.672;2023-02-28T16:14:02;6.00;99.90
29577;DHT22;16509;53.862;10.672;2023-02-28T16:16:28;6.10;99.90
29577;DHT22;16509;53.862;10.672;2023-02-28T16:18:54;6.00;99.90
29577;DHT22;16509;53.862;10.672;2023-02-28T16:21:20;6.00;99.90
29577;DHT22;16509;53.862;10.672;2023-02-28T16:23:46;6.30;99.90
29577;DHT22;16509;53.862;10.672;2023-02-28T16:26:23;6.00;99.90
29577;DHT22;16509;53.862;10.672;2023-02-28T16:28:49;6.00;99.90
29577;DHT22;16509;53.862;10.672;2023-02-28T16:31:16;6.00;99.90
29577;DHT22;16509;53.862;10.672;2023-02-28T16:33:45;5.90;99.90
29577;DHT22;16509;53.862;10.672;2023-02-28T16:36:22;6.20;99.90
29577;DHT22;16509;53.862;10.672;2023-02-28T16:38:50;5.80;99.90
29577;DHT22;16509;53.862;10.672;2023-02-28T16:41:21;5.80;99.90
29577;DHT22;16509;53.862;10.672;2023-02-28T16:43:50;5.70;99.90
29577;DHT22;16509;53.862;10.672;2023-02-28T16:46:16;5.70;99.90
29577;DHT22;16509;53.862;10.672;2023-02-28T16:48:44;5.50;99.90
29577;DHT22;16509;53.862;10.672;2023-02-28T16:51:14;5.50;99.90
29577;DHT22;16509;53.862;10.672;2023-02-28T16:53:40;5.40;99.90
29577;DHT22;16509;53.862;10.672;2023-02-28T16:56:09;5.40;99.90
29577;DHT22;16509;53.862;10.672;2023-02-28T16:58:38;5.30;99.90
29577;DHT22;16509;53.862;10.672;2023-02-28T17:01:04;5.30;99.90
29577;DHT22;16509;53.862;10.672;2023-02-28T17:03:30;5.30;99.90
29577;DHT22;16509;53.862;10.672;2023-02-28T17:05:55;5.40;99.90
29577;DHT22;16509;53.862;10.672;2023-02-28T17:08:21;5.30;99.90
29577;DHT22;16509;53.862;10.672;2023-02-28T17:10:46;5.30;99.90
29577;DHT22;16509;53.862;10.672;2023-02-28T17:13:12;5.30;99.90
29577;DHT22;16509;53.862;10.672;2023-02-28T17:15:38;5.20;99.90
29577;DHT22;16509;53.862;10.672;2023-02-28T17:18:06;5.20;99.90
29577;DHT22;16509;53.862;10.672;2023-02-28T17:20:31;5.10;99.90
29577;DHT22;16509;53.862;10.672;2023-02-28T17:22:57;5.00;99.90
29577;DHT22;16509;53.862;10.672;2023-02-28T17:25:23;5.00;99.90
29577;DHT22;16509;53.862;10.672;2023-02-28T17:27:49;4.90;99.90
29577;DHT22;16509;53.862;10.672;2023-02-28T17:30:22;4.90;99.90
29577;DHT22;16509;53.862;10.672;2023-02-28T17:32:48;4.70;99.90
29577;DHT22;16509;53.862;10.672;2023-02-28T17:35:14;4.70;99.90
29577;DHT22;16509;53.862;10.672;2023-02-28T17:37:41;4.60;99.90
29577;DHT22;16509;53.862;10.672;2023-02-28T17:40:17;4.60;99.90
29577;DHT22;16509;53.862;10.672;2023-02-28T17:42:44;4.50;99.90
29577;DHT22;16509;53.862;10.672;2023-02-28T17:45:10;4.50;99.90
29577;DHT22;16509;53.862;10.672;2023-02-28T17:47:36;4.40;99.90
29577;DHT22;16509;53.862;10.672;2023-02-28T17:50:02;4.30;99.90
29577;DHT22;16509;53.862;10.672;2023-02-28T17:52:28;4.30;99.90
29577;DHT22;16509;53.862;10.672;2023-02-28T17:54:54;4.20;99.90
29577;DHT22;16509;53.862;10.672;2023-02-28T17:57:20;4.00;99.90
29577;DHT22;16509;53.862;10.672;2023-02-28T17:59:46;4.00;99.90
29577;DHT22;16509;53.862;10.672;2023-02-28T18:02:12;3.90;99.90
29577;DHT22;16509;53.862;10.672;2023-02-28T18:04:38;3.80;99.90